Řízení letového provozu České republiky  
Aktualizace dat:  23.11.2020 18:36:24 UTC English version
   METEO Zobrazení stránky:  23.11.2020 18:38:10 UTC  
vysvětlivky
METAR EDDB 231820Z 26009KT 9999 BKN040 06/03 Q1027 NOSIG=
METAR EDDC 231820Z 24007KT 9999 FEW035 05/01 Q1029 NOSIG=
METAR EDDE 231820Z 19007KT CAVOK 01/M00 Q1029 NOSIG=
METAR EDDF 231820Z 27001KT 9000 BKN007 BKN015 07/06 Q1030 BECMG 2500 BR BKN003=
METAR EDDM 231820Z 10002KT 4500 BR SCT004 BKN021 05/05 Q1030 TEMPO BKN004=
METAR EDDN 231820Z 10002KT 9999 R28/1300D FEW040 02/02 Q1030 TEMPO 2000 BCFG=
METAR EDDP 231820Z 21005KT CAVOK 03/01 Q1029 NOSIG=
METAR EDDT NIL
METAR EDQM 231820Z 18002KT CAVOK M00/M01 Q1029=
METAR EPBY 231830Z 27012KT CAVOK 05/02 Q1022=
METAR EPGD 231830Z 27013KT 9999 FEW022 SCT027 06/03 Q1018=
METAR EPKK 231830Z 24009KT 9999 BKN050 04/02 Q1027=
METAR EPKT 231830Z 26008KT 9999 BKN033 04/02 Q1026=
METAR EPLL 231830Z 26015KT 9999 FEW021 OVC041 06/02 Q1024=
METAR EPPO 231830Z 26011KT 9999 BKN037 07/03 Q1025=
METAR EPRZ 231830Z 26013KT CAVOK 04/02 Q1025=
METAR EPWA 231830Z 27014KT 9999 BKN040 06/02 Q1022 NOSIG=
METAR EPWR 231830Z 28010KT 9999 FEW032 BKN040 07/02 Q1028=
METAR LHBP 231830Z 25004KT 3500 BR FEW022 SCT043 BKN080 02/01 Q1029 BECMG 2500=
METAR LHSM 231815Z AUTO 31004KT 6000 FEW037 03/00 Q1030=
METAR LKBC 231830Z AUTO 26003KT CAVOK 02/01 Q1029=
METAR LKCV 231830Z 26006KT CAVOK 03/00 Q1029 NOSIG RMK BLU BLU=
METAR LKKB 231830Z 26006KT CAVOK 04/00 Q1029 NOSIG RMK BLU BLU=
METAR LKKU NIL
METAR LKKV 231830Z VRB02KT 9999 R29/1100N BCFG FEW001 M02/M02 Q1029 RMK REG QNH 1026=
METAR LKLN 231830Z AUTO 00000KT CAVOK 01/01 Q1030=
METAR LKMT 231830Z 21009KT 6000 BKN046 02/01 Q1028 TEMPO 4000 BR RMK REG QNH 1026=
METAR LKNA 231830Z 29009KT CAVOK 03/02 Q1028 NOSIG RMK BLU BLU=
METAR LKPD 231830Z 21002KT CAVOK 00/00 Q1029 NOSIG RMK BLACK BLU=
SPECI LKPJ 231830Z AUTO 28004KT 1900 BR BKN001 OVC018 M00/M01 Q1029=
METAR LKPR 231830Z 26008KT CAVOK 02/M00 Q1029 NOSIG RMK REG QNH 1026=
METAR LKTB 231830Z 27005KT 0150 R27/0400N FG OVC001 03/02 Q1029 NOSIG RMK REG QNH 1026=
METAR LKVO NIL
METAR LOWI 231820Z 27002KT CAVOK M00/M02 Q1030 NOSIG=
METAR LOWL 231820Z AUTO 26007KT 9999 BKN015 05/04 Q1031 BECMG BKN014=
METAR LOWS 231820Z 23003KT 9999 FEW025 SCT045 BKN060 04/02 Q1030 NOSIG=
METAR LOWW 231820Z 03003KT 9999 -RA BKN020 05/03 Q1029 NOSIG=
METAR LZIB 231830Z 19003KT 9999 SCT033 BKN040 03/02 Q1029 NOSIG=
METAR LZKZ 231830Z 03003KT 8000 OVC013 01/00 Q1028=
METAR LZMC 231800Z VRB02KT 5000 BR OVC032 04/03 Q1030=
METAR LZPP 231830Z 36003KT 1500 BR OVC009 02/02 Q1029=
METAR LZSL 231830Z VRB01KT CAVOK M01/M02 Q1027=
METAR LZTT 231830Z 05003KT 9999 FEW010 OVC015 M01/M03 Q1025=
METAR LZZI 231830Z 27004KT 7000 OVC009 02/01 Q1029=